sensor_id;sensor_type;location;lat;lon;timestamp;P1;durP1;ratioP1;P2;durP2;ratioP2
30539;SDS011;17321;46.312;4.776;2023-04-24T00:01:32;2.47;;;1.40;;
30539;SDS011;17321;46.312;4.776;2023-04-24T00:03:59;3.10;;;1.60;;
30539;SDS011;17321;46.312;4.776;2023-04-24T00:06:25;7.88;;;1.90;;
30539;SDS011;17321;46.312;4.776;2023-04-24T00:08:58;2.72;;;1.25;;
30539;SDS011;17321;46.312;4.776;2023-04-24T00:11:25;4.05;;;1.50;;
30539;SDS011;17321;46.312;4.776;2023-04-24T00:13:51;5.20;;;1.50;;
30539;SDS011;17321;46.312;4.776;2023-04-24T00:16:18;4.68;;;1.60;;
30539;SDS011;17321;46.312;4.776;2023-04-24T00:18:44;6.80;;;1.83;;
30539;SDS011;17321;46.312;4.776;2023-04-24T00:21:12;6.10;;;1.60;;
30539;SDS011;17321;46.312;4.776;2023-04-24T00:23:38;9.82;;;2.00;;
30539;SDS011;17321;46.312;4.776;2023-04-24T00:26:04;6.65;;;2.03;;
30539;SDS011;17321;46.312;4.776;2023-04-24T00:28:31;6.90;;;1.83;;
30539;SDS011;17321;46.312;4.776;2023-04-24T00:30:57;5.80;;;1.45;;
30539;SDS011;17321;46.312;4.776;2023-04-24T00:33:23;3.55;;;1.50;;
30539;SDS011;17321;46.312;4.776;2023-04-24T00:35:49;5.97;;;1.52;;
30539;SDS011;17321;46.312;4.776;2023-04-24T00:38:15;5.82;;;1.55;;
30539;SDS011;17321;46.312;4.776;2023-04-24T00:40:41;3.25;;;1.65;;
30539;SDS011;17321;46.312;4.776;2023-04-24T00:43:07;7.43;;;1.65;;
30539;SDS011;17321;46.312;4.776;2023-04-24T00:45:33;9.27;;;1.75;;
30539;SDS011;17321;46.312;4.776;2023-04-24T00:47:59;5.90;;;1.30;;
30539;SDS011;17321;46.312;4.776;2023-04-24T00:50:26;8.48;;;1.80;;
30539;SDS011;17321;46.312;4.776;2023-04-24T00:52:52;7.90;;;1.60;;
30539;SDS011;17321;46.312;4.776;2023-04-24T00:55:19;7.63;;;1.65;;
30539;SDS011;17321;46.312;4.776;2023-04-24T00:57:45;8.48;;;1.60;;
30539;SDS011;17321;46.312;4.776;2023-04-24T01:00:12;10.68;;;1.95;;
30539;SDS011;17321;46.312;4.776;2023-04-24T01:02:39;9.93;;;2.08;;
30539;SDS011;17321;46.312;4.776;2023-04-24T01:05:09;5.88;;;1.58;;
30539;SDS011;17321;46.312;4.776;2023-04-24T01:07:36;14.73;;;2.03;;
30539;SDS011;17321;46.312;4.776;2023-04-24T01:10:03;5.88;;;1.77;;
30539;SDS011;17321;46.312;4.776;2023-04-24T01:12:29;7.63;;;1.70;;
30539;SDS011;17321;46.312;4.776;2023-04-24T01:14:56;9.80;;;1.77;;
30539;SDS011;17321;46.312;4.776;2023-04-24T01:17:22;9.75;;;1.60;;
30539;SDS011;17321;46.312;4.776;2023-04-24T01:19:48;7.72;;;1.30;;
30539;SDS011;17321;46.312;4.776;2023-04-24T01:22:14;9.45;;;1.52;;
30539;SDS011;17321;46.312;4.776;2023-04-24T01:24:41;8.40;;;1.83;;
30539;SDS011;17321;46.312;4.776;2023-04-24T01:27:09;9.43;;;2.13;;
30539;SDS011;17321;46.312;4.776;2023-04-24T01:29:35;7.13;;;2.05;;
30539;SDS011;17321;46.312;4.776;2023-04-24T01:32:02;12.15;;;1.98;;
30539;SDS011;17321;46.312;4.776;2023-04-24T01:34:29;12.30;;;2.22;;
30539;SDS011;17321;46.312;4.776;2023-04-24T01:36:55;7.60;;;1.67;;
30539;SDS011;17321;46.312;4.776;2023-04-24T01:39:21;8.00;;;1.77;;
30539;SDS011;17321;46.312;4.776;2023-04-24T01:41:50;7.07;;;1.60;;
30539;SDS011;17321;46.312;4.776;2023-04-24T01:44:17;6.13;;;1.75;;
30539;SDS011;17321;46.312;4.776;2023-04-24T01:46:43;10.27;;;1.58;;
30539;SDS011;17321;46.312;4.776;2023-04-24T01:49:10;9.60;;;1.83;;
30539;SDS011;17321;46.312;4.776;2023-04-24T01:51:36;6.18;;;1.38;;
30539;SDS011;17321;46.312;4.776;2023-04-24T01:54:02;5.60;;;1.33;;
30539;SDS011;17321;46.312;4.776;2023-04-24T01:56:28;5.25;;;1.30;;
30539;SDS011;17321;46.312;4.776;2023-04-24T01:58:57;5.35;;;1.42;;
30539;SDS011;17321;46.312;4.776;2023-04-24T02:01:24;11.73;;;3.65;;
30539;SDS011;17321;46.312;4.776;2023-04-24T02:03:50;12.10;;;4.40;;
30539;SDS011;17321;46.312;4.776;2023-04-24T02:06:16;6.55;;;2.60;;
30539;SDS011;17321;46.312;4.776;2023-04-24T02:08:42;3.78;;;1.15;;
30539;SDS011;17321;46.312;4.776;2023-04-24T02:11:09;3.78;;;1.23;;
30539;SDS011;17321;46.312;4.776;2023-04-24T02:13:35;7.18;;;1.55;;
30539;SDS011;17321;46.312;4.776;2023-04-24T02:16:01;3.92;;;1.67;;
30539;SDS011;17321;46.312;4.776;2023-04-24T02:18:27;6.82;;;1.65;;
30539;SDS011;17321;46.312;4.776;2023-04-24T02:20:54;5.25;;;1.15;;
30539;SDS011;17321;46.312;4.776;2023-04-24T02:23:20;6.35;;;1.42;;
30539;SDS011;17321;46.312;4.776;2023-04-24T02:25:46;7.45;;;1.60;;
30539;SDS011;17321;46.312;4.776;2023-04-24T02:28:12;6.38;;;1.45;;
30539;SDS011;17321;46.312;4.776;2023-04-24T02:30:38;5.85;;;1.38;;
30539;SDS011;17321;46.312;4.776;2023-04-24T02:33:04;5.72;;;1.42;;
30539;SDS011;17321;46.312;4.776;2023-04-24T02:35:31;7.95;;;1.58;;
30539;SDS011;17321;46.312;4.776;2023-04-24T02:37:57;13.13;;;2.00;;
30539;SDS011;17321;46.312;4.776;2023-04-24T02:40:23;6.95;;;1.60;;
30539;SDS011;17321;46.312;4.776;2023-04-24T02:42:49;11.77;;;2.30;;
30539;SDS011;17321;46.312;4.776;2023-04-24T02:45:15;5.35;;;1.58;;
30539;SDS011;17321;46.312;4.776;2023-04-24T02:47:41;7.00;;;1.55;;
30539;SDS011;17321;46.312;4.776;2023-04-24T02:50:07;5.20;;;1.65;;
30539;SDS011;17321;46.312;4.776;2023-04-24T02:52:34;8.63;;;1.45;;
30539;SDS011;17321;46.312;4.776;2023-04-24T02:55:00;5.32;;;1.00;;
30539;SDS011;17321;46.312;4.776;2023-04-24T02:57:26;5.95;;;1.27;;
30539;SDS011;17321;46.312;4.776;2023-04-24T02:59:52;3.70;;;1.00;;
30539;SDS011;17321;46.312;4.776;2023-04-24T03:02:18;6.03;;;1.40;;
30539;SDS011;17321;46.312;4.776;2023-04-24T03:04:45;2.63;;;1.00;;
30539;SDS011;17321;46.312;4.776;2023-04-24T03:07:13;2.13;;;0.57;;
30539;SDS011;17321;46.312;4.776;2023-04-24T03:09:39;3.95;;;1.00;;
30539;SDS011;17321;46.312;4.776;2023-04-24T03:12:05;2.13;;;0.82;;
30539;SDS011;17321;46.312;4.776;2023-04-24T03:14:32;2.30;;;0.63;;
30539;SDS011;17321;46.312;4.776;2023-04-24T03:16:58;3.67;;;0.70;;
30539;SDS011;17321;46.312;4.776;2023-04-24T03:19:24;2.13;;;0.60;;
30539;SDS011;17321;46.312;4.776;2023-04-24T03:21:50;6.22;;;1.08;;
30539;SDS011;17321;46.312;4.776;2023-04-24T03:24:16;4.25;;;1.48;;
30539;SDS011;17321;46.312;4.776;2023-04-24T03:26:43;6.05;;;1.88;;
30539;SDS011;17321;46.312;4.776;2023-04-24T03:29:09;9.23;;;2.10;;
30539;SDS011;17321;46.312;4.776;2023-04-24T03:31:35;8.27;;;1.55;;
30539;SDS011;17321;46.312;4.776;2023-04-24T03:34:01;3.40;;;1.45;;
30539;SDS011;17321;46.312;4.776;2023-04-24T03:36:27;6.30;;;1.17;;
30539;SDS011;17321;46.312;4.776;2023-04-24T03:38:53;6.13;;;1.80;;
30539;SDS011;17321;46.312;4.776;2023-04-24T03:41:19;8.80;;;1.80;;
30539;SDS011;17321;46.312;4.776;2023-04-24T03:43:47;3.67;;;1.65;;
30539;SDS011;17321;46.312;4.776;2023-04-24T03:46:13;6.15;;;1.70;;
30539;SDS011;17321;46.312;4.776;2023-04-24T03:48:40;7.13;;;1.83;;
30539;SDS011;17321;46.312;4.776;2023-04-24T03:51:06;6.65;;;1.65;;
30539;SDS011;17321;46.312;4.776;2023-04-24T03:53:32;7.65;;;1.98;;
30539;SDS011;17321;46.312;4.776;2023-04-24T03:55:58;4.90;;;1.45;;
30539;SDS011;17321;46.312;4.776;2023-04-24T03:58:24;3.47;;;1.40;;
30539;SDS011;17321;46.312;4.776;2023-04-24T04:00:50;7.35;;;2.10;;
30539;SDS011;17321;46.312;4.776;2023-04-24T04:03:16;4.82;;;1.58;;
30539;SDS011;17321;46.312;4.776;2023-04-24T04:05:43;6.22;;;1.75;;
30539;SDS011;17321;46.312;4.776;2023-04-24T04:08:09;6.13;;;1.65;;
30539;SDS011;17321;46.312;4.776;2023-04-24T04:10:35;6.32;;;1.77;;
30539;SDS011;17321;46.312;4.776;2023-04-24T04:13:01;5.75;;;1.95;;
30539;SDS011;17321;46.312;4.776;2023-04-24T04:15:27;6.70;;;1.70;;
30539;SDS011;17321;46.312;4.776;2023-04-24T04:17:53;9.40;;;2.15;;
30539;SDS011;17321;46.312;4.776;2023-04-24T04:20:19;4.53;;;1.95;;
30539;SDS011;17321;46.312;4.776;2023-04-24T04:22:45;4.60;;;1.50;;
30539;SDS011;17321;46.312;4.776;2023-04-24T04:25:12;8.32;;;2.00;;
30539;SDS011;17321;46.312;4.776;2023-04-24T04:27:38;4.32;;;1.90;;
30539;SDS011;17321;46.312;4.776;2023-04-24T04:30:06;9.40;;;2.10;;
30539;SDS011;17321;46.312;4.776;2023-04-24T04:32:33;8.32;;;2.70;;
30539;SDS011;17321;46.312;4.776;2023-04-24T04:35:00;3.40;;;1.63;;
30539;SDS011;17321;46.312;4.776;2023-04-24T04:37:31;7.53;;;2.30;;
30539;SDS011;17321;46.312;4.776;2023-04-24T04:39:58;9.27;;;2.10;;
30539;SDS011;17321;46.312;4.776;2023-04-24T04:42:25;5.45;;;1.88;;
30539;SDS011;17321;46.312;4.776;2023-04-24T04:44:52;6.97;;;1.77;;
30539;SDS011;17321;46.312;4.776;2023-04-24T04:47:18;10.43;;;2.45;;
30539;SDS011;17321;46.312;4.776;2023-04-24T04:49:49;4.82;;;1.98;;
30539;SDS011;17321;46.312;4.776;2023-04-24T04:52:17;5.70;;;2.38;;
30539;SDS011;17321;46.312;4.776;2023-04-24T04:54:43;7.10;;;2.40;;
30539;SDS011;17321;46.312;4.776;2023-04-24T04:57:10;10.23;;;2.30;;
30539;SDS011;17321;46.312;4.776;2023-04-24T04:59:37;11.80;;;2.47;;
30539;SDS011;17321;46.312;4.776;2023-04-24T05:02:03;12.20;;;2.97;;
30539;SDS011;17321;46.312;4.776;2023-04-24T05:04:29;5.97;;;2.30;;
30539;SDS011;17321;46.312;4.776;2023-04-24T05:06:56;8.07;;;2.03;;
30539;SDS011;17321;46.312;4.776;2023-04-24T05:09:22;4.13;;;2.15;;
30539;SDS011;17321;46.312;4.776;2023-04-24T05:11:48;10.80;;;2.45;;
30539;SDS011;17321;46.312;4.776;2023-04-24T05:14:14;6.40;;;2.20;;
30539;SDS011;17321;46.312;4.776;2023-04-24T05:16:42;6.67;;;2.07;;
30539;SDS011;17321;46.312;4.776;2023-04-24T05:19:09;6.05;;;2.35;;
30539;SDS011;17321;46.312;4.776;2023-04-24T05:21:36;5.70;;;1.70;;
30539;SDS011;17321;46.312;4.776;2023-04-24T05:24:04;9.55;;;2.60;;
30539;SDS011;17321;46.312;4.776;2023-04-24T05:26:30;6.38;;;1.85;;
30539;SDS011;17321;46.312;4.776;2023-04-24T05:28:56;7.57;;;2.33;;
30539;SDS011;17321;46.312;4.776;2023-04-24T05:31:22;8.23;;;2.45;;
30539;SDS011;17321;46.312;4.776;2023-04-24T05:33:49;7.35;;;2.47;;
30539;SDS011;17321;46.312;4.776;2023-04-24T05:36:15;8.15;;;2.28;;
30539;SDS011;17321;46.312;4.776;2023-04-24T05:38:41;5.95;;;1.88;;
30539;SDS011;17321;46.312;4.776;2023-04-24T05:41:07;10.45;;;2.67;;
30539;SDS011;17321;46.312;4.776;2023-04-24T05:43:33;6.18;;;2.00;;
30539;SDS011;17321;46.312;4.776;2023-04-24T05:45:59;9.55;;;2.70;;
30539;SDS011;17321;46.312;4.776;2023-04-24T05:48:26;7.10;;;2.28;;
30539;SDS011;17321;46.312;4.776;2023-04-24T05:50:52;6.03;;;2.38;;
30539;SDS011;17321;46.312;4.776;2023-04-24T05:53:18;8.10;;;2.25;;
30539;SDS011;17321;46.312;4.776;2023-04-24T05:55:45;4.32;;;2.50;;
30539;SDS011;17321;46.312;4.776;2023-04-24T05:58:11;7.28;;;2.53;;
30539;SDS011;17321;46.312;4.776;2023-04-24T06:00:38;5.15;;;2.33;;
30539;SDS011;17321;46.312;4.776;2023-04-24T06:03:07;5.60;;;2.40;;
30539;SDS011;17321;46.312;4.776;2023-04-24T06:05:33;5.28;;;2.03;;
30539;SDS011;17321;46.312;4.776;2023-04-24T06:08:00;6.88;;;2.10;;
30539;SDS011;17321;46.312;4.776;2023-04-24T06:10:26;4.10;;;1.83;;
30539;SDS011;17321;46.312;4.776;2023-04-24T06:12:52;11.10;;;2.25;;
30539;SDS011;17321;46.312;4.776;2023-04-24T06:15:21;5.97;;;2.50;;
30539;SDS011;17321;46.312;4.776;2023-04-24T06:17:47;8.13;;;2.13;;
30539;SDS011;17321;46.312;4.776;2023-04-24T06:20:13;7.10;;;2.20;;
30539;SDS011;17321;46.312;4.776;2023-04-24T06:22:39;10.80;;;2.65;;
30539;SDS011;17321;46.312;4.776;2023-04-24T06:25:06;6.88;;;1.83;;
30539;SDS011;17321;46.312;4.776;2023-04-24T06:27:32;8.25;;;2.08;;
30539;SDS011;17321;46.312;4.776;2023-04-24T06:29:58;4.97;;;1.80;;
30539;SDS011;17321;46.312;4.776;2023-04-24T06:32:24;7.43;;;2.20;;
30539;SDS011;17321;46.312;4.776;2023-04-24T06:34:52;6.35;;;2.20;;
30539;SDS011;17321;46.312;4.776;2023-04-24T06:37:18;5.05;;;2.50;;
30539;SDS011;17321;46.312;4.776;2023-04-24T06:39:45;6.82;;;2.28;;
30539;SDS011;17321;46.312;4.776;2023-04-24T06:42:11;9.25;;;2.20;;
30539;SDS011;17321;46.312;4.776;2023-04-24T06:44:38;5.43;;;1.90;;
30539;SDS011;17321;46.312;4.776;2023-04-24T06:47:08;4.80;;;1.83;;
30539;SDS011;17321;46.312;4.776;2023-04-24T06:49:36;4.95;;;2.25;;
30539;SDS011;17321;46.312;4.776;2023-04-24T06:52:03;5.57;;;2.05;;
30539;SDS011;17321;46.312;4.776;2023-04-24T06:54:30;7.07;;;2.58;;
30539;SDS011;17321;46.312;4.776;2023-04-24T06:56:56;5.97;;;1.83;;
30539;SDS011;17321;46.312;4.776;2023-04-24T06:59:23;7.53;;;1.88;;
30539;SDS011;17321;46.312;4.776;2023-04-24T07:01:49;6.90;;;2.72;;
30539;SDS011;17321;46.312;4.776;2023-04-24T07:04:16;4.68;;;2.00;;
30539;SDS011;17321;46.312;4.776;2023-04-24T07:06:44;4.25;;;1.92;;
30539;SDS011;17321;46.312;4.776;2023-04-24T07:09:11;6.43;;;2.23;;
30539;SDS011;17321;46.312;4.776;2023-04-24T07:11:38;5.55;;;1.83;;
30539;SDS011;17321;46.312;4.776;2023-04-24T07:14:05;3.45;;;1.73;;
30539;SDS011;17321;46.312;4.776;2023-04-24T07:16:32;2.25;;;1.77;;
30539;SDS011;17321;46.312;4.776;2023-04-24T07:18:58;4.00;;;1.73;;
30539;SDS011;17321;46.312;4.776;2023-04-24T07:21:24;2.35;;;1.60;;
30539;SDS011;17321;46.312;4.776;2023-04-24T07:23:50;4.32;;;1.58;;
30539;SDS011;17321;46.312;4.776;2023-04-24T07:26:16;3.03;;;1.27;;
30539;SDS011;17321;46.312;4.776;2023-04-24T07:28:42;5.50;;;1.83;;
30539;SDS011;17321;46.312;4.776;2023-04-24T07:31:10;3.90;;;1.10;;
30539;SDS011;17321;46.312;4.776;2023-04-24T07:33:37;6.30;;;1.35;;
30539;SDS011;17321;46.312;4.776;2023-04-24T07:36:03;3.85;;;1.75;;
30539;SDS011;17321;46.312;4.776;2023-04-24T07:38:30;4.30;;;1.88;;
30539;SDS011;17321;46.312;4.776;2023-04-24T07:40:56;3.90;;;1.95;;
30539;SDS011;17321;46.312;4.776;2023-04-24T07:43:22;2.97;;;1.45;;
30539;SDS011;17321;46.312;4.776;2023-04-24T07:45:51;7.82;;;1.92;;
30539;SDS011;17321;46.312;4.776;2023-04-24T07:48:17;5.10;;;1.92;;
30539;SDS011;17321;46.312;4.776;2023-04-24T07:50:45;1.85;;;1.30;;
30539;SDS011;17321;46.312;4.776;2023-04-24T07:53:11;6.13;;;1.80;;
30539;SDS011;17321;46.312;4.776;2023-04-24T07:55:37;6.57;;;1.88;;
30539;SDS011;17321;46.312;4.776;2023-04-24T07:58:03;5.32;;;1.40;;
30539;SDS011;17321;46.312;4.776;2023-04-24T08:00:29;6.55;;;1.58;;
30539;SDS011;17321;46.312;4.776;2023-04-24T08:02:55;7.22;;;1.73;;
30539;SDS011;17321;46.312;4.776;2023-04-24T08:05:22;5.40;;;2.08;;
30539;SDS011;17321;46.312;4.776;2023-04-24T08:07:50;5.70;;;2.30;;
30539;SDS011;17321;46.312;4.776;2023-04-24T08:10:16;2.10;;;1.70;;
30539;SDS011;17321;46.312;4.776;2023-04-24T08:12:42;9.32;;;2.08;;
30539;SDS011;17321;46.312;4.776;2023-04-24T08:15:08;6.10;;;1.92;;
30539;SDS011;17321;46.312;4.776;2023-04-24T08:17:35;7.30;;;2.00;;
30539;SDS011;17321;46.312;4.776;2023-04-24T08:20:04;5.88;;;1.95;;
30539;SDS011;17321;46.312;4.776;2023-04-24T08:22:30;5.57;;;1.92;;
30539;SDS011;17321;46.312;4.776;2023-04-24T08:24:58;7.28;;;1.70;;
30539;SDS011;17321;46.312;4.776;2023-04-24T08:27:25;5.55;;;2.08;;
30539;SDS011;17321;46.312;4.776;2023-04-24T08:29:52;4.85;;;2.22;;
30539;SDS011;17321;46.312;4.776;2023-04-24T08:32:18;6.10;;;1.80;;
30539;SDS011;17321;46.312;4.776;2023-04-24T08:34:45;8.10;;;1.95;;
30539;SDS011;17321;46.312;4.776;2023-04-24T08:37:11;4.07;;;2.00;;
30539;SDS011;17321;46.312;4.776;2023-04-24T08:39:37;4.47;;;2.00;;
30539;SDS011;17321;46.312;4.776;2023-04-24T08:42:04;11.93;;;2.90;;
30539;SDS011;17321;46.312;4.776;2023-04-24T08:46:58;3.53;;;1.60;;
30539;SDS011;17321;46.312;4.776;2023-04-24T08:49:25;9.10;;;1.65;;
30539;SDS011;17321;46.312;4.776;2023-04-24T08:51:52;2.72;;;1.63;;
30539;SDS011;17321;46.312;4.776;2023-04-24T08:54:18;4.88;;;1.90;;
30539;SDS011;17321;46.312;4.776;2023-04-24T08:56:44;7.43;;;1.90;;
30539;SDS011;17321;46.312;4.776;2023-04-24T08:59:13;7.75;;;2.40;;
30539;SDS011;17321;46.312;4.776;2023-04-24T09:01:40;4.68;;;2.03;;
30539;SDS011;17321;46.312;4.776;2023-04-24T09:04:07;4.88;;;1.70;;
30539;SDS011;17321;46.312;4.776;2023-04-24T09:06:34;5.32;;;1.80;;
30539;SDS011;17321;46.312;4.776;2023-04-24T09:09:01;6.53;;;2.17;;
30539;SDS011;17321;46.312;4.776;2023-04-24T09:11:29;2.90;;;1.83;;
30539;SDS011;17321;46.312;4.776;2023-04-24T09:13:56;5.68;;;1.95;;
30539;SDS011;17321;46.312;4.776;2023-04-24T09:16:22;7.00;;;1.65;;
30539;SDS011;17321;46.312;4.776;2023-04-24T09:18:50;5.30;;;1.90;;
30539;SDS011;17321;46.312;4.776;2023-04-24T09:21:16;3.70;;;1.80;;
30539;SDS011;17321;46.312;4.776;2023-04-24T09:23:42;6.28;;;2.47;;
30539;SDS011;17321;46.312;4.776;2023-04-24T09:26:09;6.10;;;1.77;;
30539;SDS011;17321;46.312;4.776;2023-04-24T09:28:36;5.32;;;2.03;;
30539;SDS011;17321;46.312;4.776;2023-04-24T09:31:11;9.25;;;2.40;;
30539;SDS011;17321;46.312;4.776;2023-04-24T09:33:38;3.75;;;1.65;;
30539;SDS011;17321;46.312;4.776;2023-04-24T09:36:05;5.25;;;2.15;;
30539;SDS011;17321;46.312;4.776;2023-04-24T09:41:00;7.07;;;2.47;;
30539;SDS011;17321;46.312;4.776;2023-04-24T09:43:28;3.47;;;1.98;;
30539;SDS011;17321;46.312;4.776;2023-04-24T09:45:58;4.20;;;1.77;;
30539;SDS011;17321;46.312;4.776;2023-04-24T09:48:31;4.60;;;2.10;;
30539;SDS011;17321;46.312;4.776;2023-04-24T09:50:57;5.35;;;1.92;;
30539;SDS011;17321;46.312;4.776;2023-04-24T09:53:24;4.90;;;2.15;;
30539;SDS011;17321;46.312;4.776;2023-04-24T09:55:50;6.32;;;2.03;;
30539;SDS011;17321;46.312;4.776;2023-04-24T09:58:18;3.78;;;2.10;;
30539;SDS011;17321;46.312;4.776;2023-04-24T10:00:44;2.92;;;2.15;;
30539;SDS011;17321;46.312;4.776;2023-04-24T10:03:11;3.67;;;1.95;;
30539;SDS011;17321;46.312;4.776;2023-04-24T10:05:37;10.27;;;2.05;;
30539;SDS011;17321;46.312;4.776;2023-04-24T10:08:07;3.20;;;2.10;;
30539;SDS011;17321;46.312;4.776;2023-04-24T10:10:35;5.43;;;2.13;;
30539;SDS011;17321;46.312;4.776;2023-04-24T10:13:03;5.50;;;2.15;;
30539;SDS011;17321;46.312;4.776;2023-04-24T10:15:30;4.88;;;1.77;;
30539;SDS011;17321;46.312;4.776;2023-04-24T10:17:57;6.55;;;2.45;;
30539;SDS011;17321;46.312;4.776;2023-04-24T10:20:25;2.95;;;1.90;;
30539;SDS011;17321;46.312;4.776;2023-04-24T10:22:52;5.95;;;1.92;;
30539;SDS011;17321;46.312;4.776;2023-04-24T10:25:19;4.18;;;2.47;;
30539;SDS011;17321;46.312;4.776;2023-04-24T10:27:46;4.05;;;1.42;;
30539;SDS011;17321;46.312;4.776;2023-04-24T10:30:12;4.03;;;1.70;;
30539;SDS011;17321;46.312;4.776;2023-04-24T10:32:39;4.50;;;1.92;;
30539;SDS011;17321;46.312;4.776;2023-04-24T10:35:09;2.33;;;1.60;;
30539;SDS011;17321;46.312;4.776;2023-04-24T10:38:21;4.15;;;1.80;;
30539;SDS011;17321;46.312;4.776;2023-04-24T10:40:25;4.18;;;1.80;;
30539;SDS011;17321;46.312;4.776;2023-04-24T10:42:52;3.78;;;2.00;;
30539;SDS011;17321;46.312;4.776;2023-04-24T10:45:19;3.35;;;1.63;;
30539;SDS011;17321;46.312;4.776;2023-04-24T10:47:53;3.65;;;1.60;;
30539;SDS011;17321;46.312;4.776;2023-04-24T10:50:22;5.20;;;1.77;;
30539;SDS011;17321;46.312;4.776;2023-04-24T10:52:48;5.38;;;2.17;;
30539;SDS011;17321;46.312;4.776;2023-04-24T10:55:16;3.78;;;2.00;;
30539;SDS011;17321;46.312;4.776;2023-04-24T10:58:02;3.33;;;1.73;;
30539;SDS011;17321;46.312;4.776;2023-04-24T11:00:29;3.45;;;2.10;;
30539;SDS011;17321;46.312;4.776;2023-04-24T11:02:56;6.63;;;2.33;;
30539;SDS011;17321;46.312;4.776;2023-04-24T11:05:22;5.55;;;2.25;;
30539;SDS011;17321;46.312;4.776;2023-04-24T11:08:12;4.53;;;2.00;;
30539;SDS011;17321;46.312;4.776;2023-04-24T11:10:44;4.68;;;2.05;;
30539;SDS011;17321;46.312;4.776;2023-04-24T11:13:14;5.35;;;2.17;;
30539;SDS011;17321;46.312;4.776;2023-04-24T11:15:41;7.50;;;1.90;;
30539;SDS011;17321;46.312;4.776;2023-04-24T11:18:14;5.40;;;2.28;;
30539;SDS011;17321;46.312;4.776;2023-04-24T11:20:44;5.28;;;2.35;;
30539;SDS011;17321;46.312;4.776;2023-04-24T11:23:11;11.50;;;2.60;;
30539;SDS011;17321;46.312;4.776;2023-04-24T11:25:38;3.83;;;1.90;;
30539;SDS011;17321;46.312;4.776;2023-04-24T11:28:04;6.22;;;1.83;;
30539;SDS011;17321;46.312;4.776;2023-04-24T11:30:31;4.18;;;1.70;;
30539;SDS011;17321;46.312;4.776;2023-04-24T11:33:05;4.55;;;2.28;;
30539;SDS011;17321;46.312;4.776;2023-04-24T11:35:34;9.65;;;2.65;;
30539;SDS011;17321;46.312;4.776;2023-04-24T11:38:02;3.83;;;1.75;;
30539;SDS011;17321;46.312;4.776;2023-04-24T11:40:29;5.47;;;2.20;;
30539;SDS011;17321;46.312;4.776;2023-04-24T11:42:55;10.75;;;2.58;;
30539;SDS011;17321;46.312;4.776;2023-04-24T11:45:22;7.35;;;2.28;;
30539;SDS011;17321;46.312;4.776;2023-04-24T11:47:48;6.75;;;2.42;;
30539;SDS011;17321;46.312;4.776;2023-04-24T11:50:15;7.32;;;2.17;;
30539;SDS011;17321;46.312;4.776;2023-04-24T11:52:43;5.40;;;2.35;;
30539;SDS011;17321;46.312;4.776;2023-04-24T11:57:45;6.15;;;2.35;;
30539;SDS011;17321;46.312;4.776;2023-04-24T12:00:15;5.72;;;2.65;;
30539;SDS011;17321;46.312;4.776;2023-04-24T12:02:42;5.93;;;2.47;;
30539;SDS011;17321;46.312;4.776;2023-04-24T12:05:08;7.07;;;2.80;;
30539;SDS011;17321;46.312;4.776;2023-04-24T12:07:40;6.03;;;2.30;;
30539;SDS011;17321;46.312;4.776;2023-04-24T12:10:09;5.13;;;2.13;;
30539;SDS011;17321;46.312;4.776;2023-04-24T12:12:35;7.68;;;2.63;;
30539;SDS011;17321;46.312;4.776;2023-04-24T12:15:01;7.88;;;2.53;;
30539;SDS011;17321;46.312;4.776;2023-04-24T12:17:32;7.00;;;2.22;;
30539;SDS011;17321;46.312;4.776;2023-04-24T12:20:02;5.18;;;1.85;;
30539;SDS011;17321;46.312;4.776;2023-04-24T12:22:48;9.32;;;2.30;;
30539;SDS011;17321;46.312;4.776;2023-04-24T12:25:15;5.72;;;2.40;;
30539;SDS011;17321;46.312;4.776;2023-04-24T12:27:43;4.28;;;1.92;;
30539;SDS011;17321;46.312;4.776;2023-04-24T12:30:10;4.38;;;2.45;;
30539;SDS011;17321;46.312;4.776;2023-04-24T12:32:40;7.47;;;2.90;;
30539;SDS011;17321;46.312;4.776;2023-04-24T12:35:07;6.18;;;2.65;;
30539;SDS011;17321;46.312;4.776;2023-04-24T12:37:33;5.97;;;2.40;;
30539;SDS011;17321;46.312;4.776;2023-04-24T12:40:05;5.90;;;2.30;;
30539;SDS011;17321;46.312;4.776;2023-04-24T12:42:32;10.80;;;2.28;;
30539;SDS011;17321;46.312;4.776;2023-04-24T12:45:00;8.45;;;1.92;;
30539;SDS011;17321;46.312;4.776;2023-04-24T12:47:27;8.90;;;2.28;;
30539;SDS011;17321;46.312;4.776;2023-04-24T12:49:53;10.32;;;2.30;;
30539;SDS011;17321;46.312;4.776;2023-04-24T12:52:21;7.43;;;2.40;;
30539;SDS011;17321;46.312;4.776;2023-04-24T12:54:47;8.93;;;2.38;;
30539;SDS011;17321;46.312;4.776;2023-04-24T12:57:13;9.23;;;2.63;;
30539;SDS011;17321;46.312;4.776;2023-04-24T12:59:39;6.30;;;2.38;;
30539;SDS011;17321;46.312;4.776;2023-04-24T13:02:06;6.40;;;2.35;;
30539;SDS011;17321;46.312;4.776;2023-04-24T13:04:34;6.80;;;2.35;;
30539;SDS011;17321;46.312;4.776;2023-04-24T13:07:00;9.15;;;2.28;;
30539;SDS011;17321;46.312;4.776;2023-04-24T13:09:26;6.40;;;2.33;;
30539;SDS011;17321;46.312;4.776;2023-04-24T13:11:52;6.43;;;2.83;;
30539;SDS011;17321;46.312;4.776;2023-04-24T13:14:18;5.53;;;2.45;;
30539;SDS011;17321;46.312;4.776;2023-04-24T13:16:44;4.05;;;2.10;;
30539;SDS011;17321;46.312;4.776;2023-04-24T13:19:10;7.18;;;2.00;;
30539;SDS011;17321;46.312;4.776;2023-04-24T13:21:36;6.03;;;2.92;;
30539;SDS011;17321;46.312;4.776;2023-04-24T13:24:03;8.63;;;2.10;;
30539;SDS011;17321;46.312;4.776;2023-04-24T13:26:30;9.57;;;2.42;;
30539;SDS011;17321;46.312;4.776;2023-04-24T13:28:56;4.47;;;2.05;;
30539;SDS011;17321;46.312;4.776;2023-04-24T13:31:22;6.32;;;2.45;;
30539;SDS011;17321;46.312;4.776;2023-04-24T13:33:48;7.40;;;2.30;;
30539;SDS011;17321;46.312;4.776;2023-04-24T13:36:14;4.07;;;2.35;;
30539;SDS011;17321;46.312;4.776;2023-04-24T13:38:42;7.05;;;2.20;;
30539;SDS011;17321;46.312;4.776;2023-04-24T13:41:08;7.32;;;1.90;;
30539;SDS011;17321;46.312;4.776;2023-04-24T13:43:34;4.45;;;2.22;;
30539;SDS011;17321;46.312;4.776;2023-04-24T13:46:01;7.10;;;2.40;;
30539;SDS011;17321;46.312;4.776;2023-04-24T13:48:28;5.75;;;2.30;;
30539;SDS011;17321;46.312;4.776;2023-04-24T13:50:54;6.38;;;2.50;;
30539;SDS011;17321;46.312;4.776;2023-04-24T13:53:21;6.15;;;2.13;;
30539;SDS011;17321;46.312;4.776;2023-04-24T13:55:47;8.13;;;2.65;;
30539;SDS011;17321;46.312;4.776;2023-04-24T13:58:13;7.55;;;2.40;;
30539;SDS011;17321;46.312;4.776;2023-04-24T14:00:40;6.68;;;2.30;;
30539;SDS011;17321;46.312;4.776;2023-04-24T14:03:06;7.25;;;2.47;;
30539;SDS011;17321;46.312;4.776;2023-04-24T14:05:32;7.43;;;2.42;;
30539;SDS011;17321;46.312;4.776;2023-04-24T14:07:58;9.90;;;2.35;;
30539;SDS011;17321;46.312;4.776;2023-04-24T14:10:24;9.13;;;2.65;;
30539;SDS011;17321;46.312;4.776;2023-04-24T14:12:52;7.43;;;2.75;;
30539;SDS011;17321;46.312;4.776;2023-04-24T14:15:18;4.45;;;2.03;;
30539;SDS011;17321;46.312;4.776;2023-04-24T14:17:45;5.82;;;2.10;;
30539;SDS011;17321;46.312;4.776;2023-04-24T14:20:11;9.32;;;2.10;;
30539;SDS011;17321;46.312;4.776;2023-04-24T14:22:38;8.02;;;2.30;;
30539;SDS011;17321;46.312;4.776;2023-04-24T14:25:04;13.27;;;2.50;;
30539;SDS011;17321;46.312;4.776;2023-04-24T14:27:31;5.63;;;2.10;;
30539;SDS011;17321;46.312;4.776;2023-04-24T14:29:57;8.73;;;2.60;;
30539;SDS011;17321;46.312;4.776;2023-04-24T14:32:23;7.15;;;2.47;;
30539;SDS011;17321;46.312;4.776;2023-04-24T14:34:49;6.03;;;2.45;;
30539;SDS011;17321;46.312;4.776;2023-04-24T14:37:16;5.78;;;2.08;;
30539;SDS011;17321;46.312;4.776;2023-04-24T14:39:42;4.45;;;1.80;;
30539;SDS011;17321;46.312;4.776;2023-04-24T14:42:08;6.88;;;1.92;;
30539;SDS011;17321;46.312;4.776;2023-04-24T14:44:34;7.07;;;2.38;;
30539;SDS011;17321;46.312;4.776;2023-04-24T14:47:00;10.13;;;2.40;;
30539;SDS011;17321;46.312;4.776;2023-04-24T14:49:26;5.82;;;2.10;;
30539;SDS011;17321;46.312;4.776;2023-04-24T14:51:52;6.90;;;2.20;;
30539;SDS011;17321;46.312;4.776;2023-04-24T14:54:18;4.50;;;1.92;;